Terminal Aerodrome Forecast
Issued by NWS Binghamton, NY

Home | Current Version | Previous Version | Text Only | Print | Product List | Glossary On
Versions: 1 2 3 4 5 6 7 8 9 10 11 12 13 14 15 16 17 18 19 20 21 22
560
FTUS41 KBGM 290853 AAA
TAFAVP
TAF AMD
KAVP 290853Z 2909/3006 13004KT 6SM -SHRA BR OVC025
      TEMPO 2910/2914 3SM -SHRA BR OVC014
     FM291400 17006KT P6SM BKN012 OVC025
     FM292000 17007KT P6SM -SHRA BKN025 OVC040
     FM300100 VRB03KT P6SM FEW030
     FM300500 00000KT P6SM BKN008=

USA.gov is the U.S. government's official web portal to all federal, state and local government web resources and services.